Time;durP1;ratioP1;P1;durP2;ratioP2;P2;SDS_P1;SDS_P2;PMS_P1;PMS_P2;Temp;Humidity;BMP_temperature;BMP_pressure;BME280_temperature;BME280_humidity;BME280_pressure;Samples;Min_cycle;Max_cycle;Signal;HPM_P1;HPM_P2
2021/08/05 00:01:45;;;;;;;;;6.00;5.50;;;;;21.00;55.79;100425.66;5015126;28;45571;-77
2021/08/05 00:04:10;;;;;;;;;5.00;4.75;;;;;20.97;55.94;100419.88;5015078;28;45491;-78
2021/08/05 00:06:36;;;;;;;;;5.00;5.00;;;;;20.92;55.77;100417.78;5014843;28;46403;-77
2021/08/05 00:09:02;;;;;;;;;6.00;5.00;;;;;20.93;55.85;100416.75;5014799;28;45539;-81
2021/08/05 00:11:27;;;;;;;;;5.50;4.75;;;;;20.92;55.85;100412.44;5014861;28;45595;-76
2021/08/05 00:13:53;;;;;;;;;4.75;4.50;;;;;20.90;56.01;100414.44;5015141;28;45517;-81
2021/08/05 00:19:40;;;;;;;;;4.50;4.00;;;;;20.75;56.41;100393.13;5003555;28;45679;-79
2021/08/05 00:22:06;;;;;;;;;8.00;7.75;;;;;20.63;56.43;100375.91;5014714;28;45676;-79
2021/08/05 00:24:31;;;;;;;;;6.25;6.25;;;;;20.73;56.48;100391.66;5015137;28;45521;-79
2021/08/05 00:26:58;;;;;;;;;6.00;6.00;;;;;20.73;56.54;100396.97;5014773;28;45514;-78
2021/08/05 00:29:24;;;;;;;;;5.75;5.00;;;;;20.72;56.49;100403.31;5014583;28;47478;-78
2021/08/05 00:31:49;;;;;;;;;6.75;6.00;;;;;20.68;56.43;100394.00;5015004;28;45628;-78
2021/08/05 00:34:14;;;;;;;;;7.25;6.00;;;;;20.65;56.80;100389.88;5014726;28;45512;-77
2021/08/05 00:36:40;;;;;;;;;5.75;5.75;;;;;20.61;56.71;100393.09;5016448;28;45834;-78
2021/08/05 00:39:05;;;;;;;;;6.50;6.00;;;;;20.51;56.86;100388.00;5016605;28;45768;-76
2021/08/05 00:41:31;;;;;;;;;7.00;6.00;;;;;20.55;57.04;100397.28;5016840;28;45508;-75
2021/08/05 00:43:58;;;;;;;;;6.00;6.00;;;;;20.50;57.04;100403.16;5016659;28;45734;-79
2021/08/05 00:49:45;;;;;;;;;5.00;4.50;;;;;20.41;57.46;100390.06;5015875;28;46066;-86
2021/08/05 00:52:10;;;;;;;;;5.25;5.25;;;;;20.40;57.35;100399.06;4999000;28;45591;-86
2021/08/05 00:54:36;;;;;;;;;5.25;5.00;;;;;20.36;57.21;100397.75;5015880;28;45449;-86
2021/08/05 00:57:02;;;;;;;;;5.00;5.00;;;;;20.31;57.35;100384.13;5019306;28;46804;-86
2021/08/05 00:59:27;;;;;;;;;6.00;5.00;;;;;20.22;57.63;100377.19;5022076;28;45710;-85
2021/08/05 01:02:02;;;;;;;;;5.00;5.00;;;;;20.25;57.68;100380.31;5022747;28;45974;-85
2021/08/05 01:04:32;;;;;;;;;7.00;7.00;;;;;20.22;57.48;100372.72;5022963;28;45758;-85
2021/08/05 01:07:09;;;;;;;;;5.50;5.50;;;;;20.27;57.68;100386.31;5021410;28;47408;-78
2021/08/05 01:09:49;;;;;;;;;6.50;6.50;;;;;20.27;57.51;100385.47;5015502;28;46221;-76
2021/08/05 01:12:26;;;;;;;;;6.75;6.25;;;;;20.26;57.69;100371.34;5017692;28;45773;-78
2021/08/05 01:15:14;;;;;;;;;6.00;5.25;;;;;20.19;57.51;100365.06;5022737;28;45506;-78
2021/08/05 01:17:44;;;;;;;;;6.00;5.25;;;;;20.19;57.64;100365.06;5019474;28;46096;-77
2021/08/05 01:20:15;;;;;;;;;7.00;6.50;;;;;20.19;57.68;100373.06;5020405;28;45958;-75
2021/08/05 01:22:56;;;;;;;;;6.25;5.75;;;;;20.23;57.56;100374.38;4996224;28;45766;-77
2021/08/05 01:25:45;;;;;;;;;7.75;7.00;;;;;20.20;57.51;100372.06;5014387;28;45551;-78
2021/08/05 01:28:12;;;;;;;;;7.25;6.25;;;;;20.08;57.64;100358.31;4933255;28;45545;-82
2021/08/05 01:30:41;;;;;;;;;6.25;6.00;;;;;20.11;57.63;100368.63;4933708;28;46415;-77
2021/08/05 01:33:06;;;;;;;;;4.75;4.25;;;;;20.10;57.47;100369.63;4933597;28;45730;-76
2021/08/05 01:35:32;;;;;;;;;8.00;7.50;;;;;20.11;57.65;100379.28;4933845;28;45657;-79
2021/08/05 01:38:00;;;;;;;;;7.25;7.00;;;;;20.10;57.47;100376.78;4933470;28;45608;-75
2021/08/05 01:40:26;;;;;;;;;6.25;5.50;;;;;20.06;57.63;100365.66;4933415;28;46494;-80
2021/08/05 01:42:55;;;;;;;;;7.75;6.00;;;;;20.03;57.58;100359.84;4933314;28;45713;-77
2021/08/05 01:45:21;;;;;;;;;5.75;5.75;;;;;20.06;57.64;100364.84;4935454;28;45742;-78
2021/08/05 01:47:47;;;;;;;;;7.00;7.00;;;;;20.05;57.67;100363.19;4936574;28;46248;-81
2021/08/05 01:50:14;;;;;;;;;6.00;5.75;;;;;19.95;57.62;100342.13;4936483;28;46002;-80
2021/08/05 01:52:42;;;;;;;;;7.50;6.50;;;;;20.00;57.83;100345.09;4936452;28;45596;-77
2021/08/05 01:55:08;;;;;;;;;8.00;8.00;;;;;19.99;57.84;100340.78;4936706;28;45635;-78
2021/08/05 01:57:34;;;;;;;;;9.00;8.00;;;;;19.98;57.88;100347.09;4936361;28;45751;-76
2021/08/05 01:59:59;;;;;;;;;7.00;7.00;;;;;19.97;58.19;100349.94;4936528;28;46256;-81
2021/08/05 02:02:27;;;;;;;;;8.00;7.00;;;;;19.95;57.94;100339.47;4936541;28;45770;-77
2021/08/05 02:05:11;;;;;;;;;6.75;6.50;;;;;19.96;57.85;100345.63;4965467;28;45757;-78
2021/08/05 02:07:48;;;;;;;;;7.25;7.00;;;;;19.95;58.21;100339.47;5016520;28;46697;-81
2021/08/05 02:10:23;;;;;;;;;6.00;6.00;;;;;19.88;57.93;100332.38;5017141;28;45502;-87
2021/08/05 02:13:00;;;;;;;;;7.50;6.75;;;;;19.90;57.85;100331.19;5016974;28;45693;-87
2021/08/05 02:15:28;;;;;;;;;5.75;5.75;;;;;19.95;57.89;100328.84;5017235;28;45693;-85
2021/08/05 02:17:55;;;;;;;;;8.50;8.50;;;;;19.95;57.55;100331.50;5017295;28;45786;-87
2021/08/05 02:20:22;;;;;;;;;7.00;7.00;;;;;19.95;57.93;100334.16;5017210;28;46322;-87
2021/08/05 02:22:48;;;;;;;;;8.00;8.00;;;;;19.90;57.92;100330.38;5017077;28;45667;-79
2021/08/05 02:25:14;;;;;;;;;7.75;6.75;;;;;19.87;58.21;100318.25;5016725;28;45912;-76
2021/08/05 02:27:41;;;;;;;;;9.50;7.00;;;;;19.94;58.43;100329.00;5015983;28;46528;-79
2021/08/05 02:30:08;;;;;;;;;7.25;6.75;;;;;19.89;58.00;100329.53;5016496;28;45925;-80
2021/08/05 02:32:34;;;;;;;;;7.00;6.75;;;;;19.82;58.07;100314.44;5016507;28;45681;-76
2021/08/05 02:35:03;;;;;;;;;10.50;9.75;;;;;19.85;58.21;100314.13;5016665;28;45611;-79
2021/08/05 02:37:29;;;;;;;;;8.25;7.75;;;;;19.86;58.18;100323.75;5017096;28;46364;-81
2021/08/05 02:39:55;;;;;;;;;11.25;7.75;;;;;19.84;58.38;100318.59;5018946;28;46097;-80
2021/08/05 02:42:21;;;;;;;;;8.75;8.00;;;;;19.87;58.54;100328.03;5019577;28;45544;-79
2021/08/05 02:44:48;;;;;;;;;8.25;7.25;;;;;19.84;58.29;100318.59;5019312;28;45682;-82
2021/08/05 02:47:15;;;;;;;;;7.50;6.75;;;;;19.85;58.65;100316.78;5020879;28;46037;-78
2021/08/05 02:49:41;;;;;;;;;10.50;9.25;;;;;19.84;58.80;100318.59;5023134;28;45970;-83
2021/08/05 02:52:07;;;;;;;;;11.00;9.50;;;;;19.83;58.29;100316.94;5024083;28;45622;-82
2021/08/05 02:54:34;;;;;;;;;7.25;6.75;;;;;19.81;58.70;100316.28;5006823;28;45805;-86
2021/08/05 02:56:59;;;;;;;;;8.00;7.00;;;;;19.85;58.71;100309.63;5023925;28;45478;-85
2021/08/05 02:59:26;;;;;;;;;10.25;9.25;;;;;19.85;58.44;100316.78;5019986;28;45524;-87
2021/08/05 03:05:14;;;;;;;;;8.00;8.00;;;;;19.81;58.76;100305.66;5016542;28;45721;-89
2021/08/05 03:07:39;;;;;;;;;7.25;7.00;;;;;19.81;58.64;100299.53;5016724;28;46538;-88
2021/08/05 03:10:07;;;;;;;;;5.75;5.25;;;;;19.85;58.89;100314.94;5016340;28;47410;-88
2021/08/05 03:12:33;;;;;;;;;10.25;8.75;;;;;19.83;59.05;100306.31;4998729;28;45636;-87
2021/08/05 03:14:59;;;;;;;;;9.50;8.25;;;;;19.83;58.87;100301.00;5016529;28;45639;-88
2021/08/05 03:17:25;;;;;;;;;10.00;7.75;;;;;19.75;58.74;100278.97;4998375;28;47602;-88
2021/08/05 03:19:50;;;;;;;;;8.75;7.75;;;;;19.84;58.97;100301.81;5015976;28;45822;-89
2021/08/05 03:22:16;;;;;;;;;7.75;7.00;;;;;19.82;58.74;100302.00;5016739;28;46152;-86
2021/08/05 03:24:41;;;;;;;;;8.00;8.00;;;;;19.81;58.93;100292.34;5017165;28;45556;-89
2021/08/05 03:27:08;;;;;;;;;8.50;7.75;;;;;19.79;59.25;100298.88;5017291;28;45535;-88
2021/08/05 03:29:34;;;;;;;;;9.50;9.00;;;;;19.76;58.94;100297.38;4998606;28;48227;-86
2021/08/05 03:35:22;;;;;;;;;9.00;8.25;;;;;19.63;59.25;100268.72;5016402;28;45699;-87
2021/08/05 03:37:47;;;;;;;;;8.50;8.00;;;;;19.69;59.72;100281.31;5016273;28;45472;-86
2021/08/05 03:40:12;;;;;;;;;10.25;8.50;;;;;19.67;59.12;100278.00;4998053;28;45766;-87
2021/08/05 03:42:38;;;;;;;;;9.25;9.00;;;;;19.62;59.77;100274.22;5016021;28;45865;-86
2021/08/05 03:45:04;;;;;;;;;10.75;9.25;;;;;19.52;59.39;100260.31;5016322;28;45505;-82
2021/08/05 03:47:29;;;;;;;;;10.50;10.50;;;;;19.63;59.38;100281.19;5016043;28;46136;-86
2021/08/05 03:49:54;;;;;;;;;12.25;10.25;;;;;19.62;59.16;100283.00;5016555;28;46061;-86
2021/08/05 03:52:20;;;;;;;;;8.00;7.50;;;;;19.53;59.85;100259.31;5016024;28;45517;-85
2021/08/05 03:54:45;;;;;;;;;7.75;6.00;;;;;19.61;59.70;100277.88;5015732;28;45721;-80
2021/08/05 03:57:11;;;;;;;;;8.75;8.25;;;;;19.46;59.63;100256.53;5014828;28;45674;-79
2021/08/05 03:59:36;;;;;;;;;13.25;12.50;;;;;19.65;59.83;100285.31;5015254;28;46031;-80
2021/08/05 04:05:23;;;;;;;;;9.00;9.00;;;;;19.54;59.31;100253.81;5014875;28;45541;-77
2021/08/05 04:07:49;;;;;;;;;9.50;8.75;;;;;19.62;59.83;100264.41;5013516;28;46120;-80
2021/08/05 04:10:15;;;;;;;;;10.25;9.25;;;;;19.62;59.80;100259.09;5015509;28;46011;-88
2021/08/05 04:12:40;;;;;;;;;7.25;7.00;;;;;19.67;59.63;100274.50;5015925;28;45662;-84
2021/08/05 04:15:07;;;;;;;;;11.25;11.25;;;;;19.66;60.00;100273.69;5016997;28;45586;-86
2021/08/05 04:17:32;;;;;;;;;9.75;9.75;;;;;19.65;59.64;100282.66;5021788;28;45661;-85
2021/08/05 04:19:58;;;;;;;;;9.75;9.50;;;;;19.59;60.00;100272.75;5022516;28;46079;-85
2021/08/05 04:22:23;;;;;;;;;12.75;12.00;;;;;19.51;59.96;100259.50;4999669;28;45794;-82
2021/08/05 04:24:49;;;;;;;;;11.25;10.50;;;;;19.58;60.05;100272.91;5016134;28;45605;-81
2021/08/05 04:27:14;;;;;;;;;21.00;20.50;;;;;19.39;60.25;100244.06;5015588;28;45566;-81
2021/08/05 04:29:39;;;;;;;;;14.25;12.00;;;;;19.36;60.26;100239.13;5021012;28;45925;-78
2021/08/05 04:35:27;;;;;;;;;9.75;9.00;;;;;19.56;60.14;100275.75;5021885;28;45661;-80
2021/08/05 04:37:59;;;;;;;;;12.50;12.00;;;;;19.56;60.08;100273.09;5021153;28;45873;-81
2021/08/05 04:40:27;;;;;;;;;12.25;9.00;;;;;19.57;60.09;100284.53;5015181;28;45578;-78
2021/08/05 04:42:52;;;;;;;;;10.75;10.75;;;;;19.58;60.43;100278.22;5014689;28;45591;-79
2021/08/05 04:45:19;;;;;;;;;10.75;10.75;;;;;19.51;60.30;100263.97;5014641;28;45787;-78
2021/08/05 04:51:06;;;;;;;;;11.50;10.00;;;;;19.55;60.17;100270.59;5013864;28;45631;-78
2021/08/05 04:53:32;;;;;;;;;11.25;10.75;;;;;19.56;60.55;100273.09;5014429;28;45576;-78
2021/08/05 04:55:57;;;;;;;;;12.00;11.75;;;;;19.56;60.29;100281.06;5014990;28;45583;-79
2021/08/05 04:58:22;;;;;;;;;17.25;12.25;;;;;19.57;59.99;100281.88;5015266;28;45603;-78
2021/08/05 05:00:48;;;;;;;;;12.25;12.25;;;;;19.57;60.52;100295.16;5016115;28;45669;-77
2021/08/05 05:03:13;;;;;;;;;9.75;9.50;;;;;19.54;60.72;100300.84;4999109;28;45662;-79
2021/08/05 05:05:39;;;;;;;;;10.75;9.50;;;;;19.43;60.54;100283.44;5016110;28;45588;-78
2021/08/05 05:08:19;;;;;;;;;11.25;10.25;;;;;19.49;60.76;100292.53;5014738;28;45856;-76
2021/08/05 05:10:46;;;;;;;;;10.25;10.00;;;;;19.34;60.92;100273.00;5014584;28;45960;-77
2021/08/05 05:13:12;;;;;;;;;10.50;8.75;;;;;19.40;61.04;100297.06;5014602;28;45544;-78
2021/08/05 05:15:38;;;;;;;;;10.25;8.25;;;;;19.44;60.86;100292.22;5013960;28;45757;-78
2021/08/05 05:18:04;;;;;;;;;12.75;11.25;;;;;19.29;60.71;100271.69;5014105;28;46297;-78
2021/08/05 05:20:30;;;;;;;;;10.25;10.00;;;;;19.37;60.74;100277.97;5016243;28;46660;-80
2021/08/05 05:22:55;;;;;;;;;13.25;11.75;;;;;19.38;61.14;100290.28;5017371;28;45723;-81
2021/08/05 05:25:21;;;;;;;;;13.25;11.75;;;;;19.36;61.04;100300.22;5017633;28;45718;-80
2021/08/05 05:27:46;;;;;;;;;10.00;9.50;;;;;19.34;60.65;100292.44;5017060;28;46261;-77
2021/08/05 05:30:13;;;;;;;;;11.75;11.75;;;;;19.28;60.81;100283.31;5017284;28;46797;-79
2021/08/05 05:35:59;;;;;;;;;11.25;10.75;;;;;19.30;60.83;100288.47;5017209;28;45665;-78
2021/08/05 05:38:25;;;;;;;;;12.00;10.75;;;;;19.32;61.37;100305.06;5017098;28;46468;-76
2021/08/05 05:40:50;;;;;;;;;12.75;11.75;;;;;19.32;61.34;100302.41;5016946;28;46114;-76
2021/08/05 05:43:16;;;;;;;;;10.50;10.00;;;;;19.32;61.32;100297.09;5017048;28;45630;-79
2021/08/05 05:45:43;;;;;;;;;12.50;11.50;;;;;19.28;61.12;100293.13;5017009;28;45699;-78
2021/08/05 05:51:30;;;;;;;;;13.00;12.00;;;;;19.30;61.30;100301.75;5016757;28;46071;-77
2021/08/05 05:53:55;;;;;;;;;13.00;12.25;;;;;19.21;61.65;100290.34;4999348;28;45679;-78
2021/08/05 05:56:21;;;;;;;;;12.50;11.50;;;;;19.15;61.62;100291.03;5018897;28;45753;-78
2021/08/05 05:58:46;;;;;;;;;14.75;12.00;;;;;18.97;61.52;100266.53;5018129;28;45793;-80
2021/08/05 06:01:12;;;;;;;;;13.00;13.00;;;;;19.20;61.03;100301.13;5018483;28;45438;-83
2021/08/05 06:03:37;;;;;;;;;11.00;10.25;;;;;19.19;61.19;100310.09;5018749;28;45488;-82
2021/08/05 06:06:03;;;;;;;;;11.75;11.25;;;;;19.11;61.83;100302.16;5018596;28;45520;-83
2021/08/05 06:08:28;;;;;;;;;12.00;11.25;;;;;19.15;61.29;100306.13;5018219;28;46352;-83
2021/08/05 06:10:53;;;;;;;;;14.50;12.75;;;;;19.14;61.45;100307.97;5022471;28;46200;-82
2021/08/05 06:13:19;;;;;;;;;12.00;11.75;;;;;19.13;61.32;100319.56;5024530;28;45535;-80
2021/08/05 06:15:44;;;;;;;;;12.50;11.50;;;;;19.09;61.62;100320.09;5025020;28;45709;-80
2021/08/05 06:21:31;;;;;;;;;12.75;12.25;;;;;19.09;61.64;100322.75;5006183;28;45635;-81
2021/08/05 06:23:57;;;;;;;;;12.00;11.25;;;;;19.09;62.22;100331.56;5016696;28;45612;-83
2021/08/05 06:26:24;;;;;;;;;13.25;11.50;;;;;18.99;61.90;100304.38;5016748;28;45721;-81
2021/08/05 06:28:49;;;;;;;;;11.75;11.50;;;;;19.08;62.05;100327.22;5016536;28;45544;-83
2021/08/05 06:31:16;;;;;;;;;12.00;11.25;;;;;19.02;61.96;100317.28;5015238;28;45607;-82
2021/08/05 06:33:41;;;;;;;;;12.50;12.00;;;;;19.01;62.11;100307.66;5016106;28;45528;-80
2021/08/05 06:36:07;;;;;;;;;14.75;13.25;;;;;18.91;61.76;100290.25;5016147;28;45651;-82
2021/08/05 06:38:33;;;;;;;;;12.00;11.25;;;;;19.10;61.95;100313.78;5016007;28;45583;-78
2021/08/05 06:40:58;;;;;;;;;12.50;12.00;;;;;19.10;62.41;100316.44;5016076;28;46213;-76
2021/08/05 06:43:23;;;;;;;;;12.00;11.50;;;;;19.11;61.82;100315.44;5016152;28;45652;-76
2021/08/05 06:45:49;;;;;;;;;14.50;12.25;;;;;19.11;61.99;100310.13;5016292;28;45634;-78
2021/08/05 06:51:36;;;;;;;;;9.75;9.75;;;;;19.15;62.35;100306.13;5015512;28;45909;-78
2021/08/05 06:54:01;;;;;;;;;17.25;14.00;;;;;19.17;62.44;100310.25;5015177;28;45579;-78
2021/08/05 06:56:26;;;;;;;;;12.25;12.00;;;;;19.21;62.41;100311.59;5015207;28;45568;-75
2021/08/05 06:58:52;;;;;;;;;13.00;11.75;;;;;19.25;61.73;100312.06;5014989;28;46518;-78
2021/08/05 07:01:17;;;;;;;;;14.75;12.00;;;;;19.28;61.97;100317.84;5014468;28;46013;-75
2021/08/05 07:03:42;;;;;;;;;13.75;13.50;;;;;19.22;62.00;100299.94;5014411;28;45587;-75
2021/08/05 07:06:08;;;;;;;;;14.75;13.25;;;;;19.34;61.85;100318.16;5015050;28;45690;-79
2021/08/05 07:08:35;;;;;;;;;12.75;11.00;;;;;19.35;61.85;100317.16;5014953;28;45504;-76
2021/08/05 07:11:01;;;;;;;;;14.00;12.50;;;;;19.37;61.91;100315.19;5014825;28;45681;-82
2021/08/05 07:13:26;;;;;;;;;12.50;11.25;;;;;19.35;62.00;100319.81;5015580;28;45643;-85
2021/08/05 07:15:51;;;;;;;;;12.00;11.75;;;;;19.29;61.86;100297.44;5015657;28;45527;-82
2021/08/05 07:21:38;;;;;;;;;12.75;12.25;;;;;19.48;61.91;100310.34;5014722;28;45743;-86
2021/08/05 07:24:04;;;;;;;;;12.75;12.25;;;;;19.54;61.87;100311.47;5015773;28;45670;-77
2021/08/05 07:26:29;;;;;;;;;12.75;12.00;;;;;19.56;61.53;100312.94;5015002;28;45781;-74
2021/08/05 07:28:55;;;;;;;;;14.50;13.50;;;;;19.60;61.67;100314.25;5015097;28;46382;-80
2021/08/05 07:31:20;;;;;;;;;13.75;12.75;;;;;19.61;61.71;100315.91;5014911;28;45508;-79
2021/08/05 07:37:07;;;;;;;;;15.25;14.00;;;;;19.66;61.46;100316.22;5015092;28;45715;-78
2021/08/05 07:39:33;;;;;;;;;16.25;15.75;;;;;19.69;61.17;100323.03;5015391;28;46550;-82
2021/08/05 07:41:58;;;;;;;;;20.25;19.50;;;;;19.69;61.42;100331.00;5017376;28;45651;-79
2021/08/05 07:44:24;;;;;;;;;17.75;16.75;;;;;19.68;61.65;100318.69;5019758;28;45482;-76
2021/08/05 07:46:50;;;;;;;;;15.00;14.00;;;;;19.68;61.19;100326.69;5018404;28;45594;-76
2021/08/05 07:49:15;;;;;;;;;15.00;14.50;;;;;19.66;61.55;100308.22;5016039;28;45626;-76
2021/08/05 07:51:41;;;;;;;;;18.75;16.00;;;;;19.73;61.46;100311.03;5015825;28;45727;-81
2021/08/05 07:54:06;;;;;;;;;13.75;13.00;;;;;19.78;61.17;100315.81;5021953;28;45666;-79
2021/08/05 07:56:32;;;;;;;;;14.25;13.25;;;;;19.85;61.03;100319.44;5022778;28;45677;-79
2021/08/05 07:58:57;;;;;;;;;15.50;13.50;;;;;19.89;61.39;100313.59;5022538;28;45567;-78
2021/08/05 08:01:23;;;;;;;;;14.00;12.25;;;;;19.91;60.99;100313.41;5021894;28;46342;-82
2021/08/05 08:07:10;;;;;;;;;14.00;13.00;;;;;19.96;61.13;100311.88;5014561;28;45546;-78
2021/08/05 08:09:35;;;;;;;;;16.75;14.75;;;;;19.96;60.72;100309.22;5014312;28;46811;-77
2021/08/05 08:12:01;;;;;;;;;15.75;14.25;;;;;19.99;60.77;100294.72;5014010;28;45764;-77
2021/08/05 08:14:26;;;;;;;;;12.75;11.25;;;;;19.98;60.70;100285.09;5014333;28;45622;-79
2021/08/05 08:16:52;;;;;;;;;14.00;13.00;;;;;20.01;60.98;100282.94;5014441;28;45525;-78
2021/08/05 08:22:39;;;;;;;;;13.50;12.75;;;;;20.13;60.38;100293.97;5003774;28;45943;-76
2021/08/05 08:25:05;;;;;;;;;16.25;16.00;;;;;20.13;60.72;100280.69;5014141;28;45755;-75
2021/08/05 08:27:30;;;;;;;;;11.75;10.25;;;;;20.10;60.34;100276.53;5013865;28;45935;-77
2021/08/05 08:29:56;;;;;;;;;12.25;11.75;;;;;20.12;60.65;100279.03;5014442;28;45599;-77
2021/08/05 08:32:21;;;;;;;;;16.00;15.50;;;;;20.19;60.46;100284.47;5013492;28;46063;-75
2021/08/05 08:34:46;;;;;;;;;15.75;14.00;;;;;20.18;60.27;100280.13;5014216;28;45579;-76
2021/08/05 08:37:12;;;;;;;;;13.50;11.25;;;;;20.19;60.65;100279.13;5014118;28;45495;-77
2021/08/05 08:39:37;;;;;;;;;11.50;10.75;;;;;20.20;60.31;100278.94;5013861;28;45579;-76
2021/08/05 08:42:03;;;;;;;;;13.50;12.25;;;;;20.23;60.04;100283.09;5013547;28;46035;-75
2021/08/05 08:44:28;;;;;;;;;14.00;13.50;;;;;20.28;60.26;100273.56;5013699;28;45679;-77
2021/08/05 08:46:56;;;;;;;;;13.25;12.75;;;;;20.33;60.27;100281.03;5013525;28;45871;-76
2021/08/05 08:52:45;;;;;;;;;12.00;11.50;;;;;20.38;60.31;100276.00;5013339;28;45483;-76
2021/08/05 08:55:12;;;;;;;;;13.00;12.75;;;;;20.43;59.83;100276.28;5015260;28;45527;-77
2021/08/05 08:57:38;;;;;;;;;16.00;14.50;;;;;20.44;60.11;100265.47;5017260;28;45642;-73
2021/08/05 09:00:07;;;;;;;;;10.75;10.75;;;;;20.45;60.11;100264.47;5017311;28;47257;-76
2021/08/05 09:02:33;;;;;;;;;14.50;11.50;;;;;20.52;59.99;100277.84;5016813;28;47115;-75
2021/08/05 09:04:59;;;;;;;;;12.75;11.50;;;;;20.55;59.82;100282.00;5017056;28;45696;-76
2021/08/05 09:07:24;;;;;;;;;12.00;11.00;;;;;20.58;60.00;100287.78;5017349;28;45713;-77
2021/08/05 09:09:51;;;;;;;;;13.00;11.25;;;;;20.52;59.39;100262.69;5017094;28;46896;-76
2021/08/05 09:12:17;;;;;;;;;11.50;10.50;;;;;20.56;59.45;100273.84;5016800;28;47035;-76
2021/08/05 09:14:45;;;;;;;;;11.00;10.75;;;;;20.66;59.41;100281.56;5017248;28;45623;-76
2021/08/05 09:17:28;;;;;;;;;11.75;10.50;;;;;20.70;59.16;100282.84;5016971;28;45612;-77
2021/08/05 09:23:15;;;;;;;;;11.75;11.00;;;;;20.81;58.80;100285.88;5013313;28;45843;-78
2021/08/05 09:25:41;;;;;;;;;13.50;10.25;;;;;20.81;58.63;100275.22;5018713;28;46226;-76
2021/08/05 09:28:16;;;;;;;;;12.00;10.50;;;;;20.84;58.26;100277.50;5017227;28;45838;-77
2021/08/05 09:30:43;;;;;;;;;13.25;11.50;;;;;20.92;58.33;100288.09;5017187;28;45580;-77
2021/08/05 09:33:11;;;;;;;;;12.25;9.50;;;;;20.99;58.36;100285.53;5023608;28;46039;-85
2021/08/05 09:35:38;;;;;;;;;9.00;8.50;;;;;21.05;57.79;100284.78;5024946;28;45637;-82
2021/08/05 09:38:15;;;;;;;;;8.00;7.00;;;;;21.10;57.87;100279.72;5024233;28;45681;-79
2021/08/05 09:40:42;;;;;;;;;6.25;6.25;;;;;21.15;57.45;100271.22;5022109;28;45569;-79
2021/08/05 09:43:07;;;;;;;;;8.25;6.75;;;;;21.18;57.31;100276.16;5017226;28;45570;-81
2021/08/05 09:45:34;;;;;;;;;8.25;7.75;;;;;21.23;56.84;100274.59;5017014;28;45558;-83
2021/08/05 09:47:59;;;;;;;;;7.00;6.25;;;;;21.27;56.93;100265.19;5014945;28;45595;-82
2021/08/05 09:50:25;;;;;;;;;9.50;8.00;;;;;21.35;56.99;100266.94;5014638;28;45723;-79
2021/08/05 09:52:50;;;;;;;;;8.25;7.75;;;;;21.41;56.95;100257.38;5014560;28;45621;-81
2021/08/05 09:55:21;;;;;;;;;8.50;8.00;;;;;21.48;56.49;100245.78;5014029;28;45658;-79
2021/08/05 09:57:56;;;;;;;;;7.50;7.00;;;;;21.59;56.36;100255.13;5014522;28;45643;-80
2021/08/05 10:00:21;;;;;;;;;7.50;7.25;;;;;21.66;56.80;100254.16;5015606;28;46872;-82
2021/08/05 10:02:49;;;;;;;;;8.75;8.25;;;;;21.74;56.44;100245.22;5016892;28;45687;-85
2021/08/05 10:08:39;;;;;;;;;4.75;4.75;;;;;21.84;55.84;100245.72;5016838;28;45636;-83
2021/08/05 10:11:06;;;;;;;;;5.50;5.00;;;;;21.88;55.97;100243.50;5015829;28;47474;-79
2021/08/05 10:13:39;;;;;;;;;5.75;5.50;;;;;21.89;55.86;100245.97;5017167;28;46404;-84
2021/08/05 10:16:08;;;;;;;;;4.00;3.25;;;;;21.93;55.54;100249.91;5016344;28;45654;-82
2021/08/05 10:18:36;;;;;;;;;5.50;4.75;;;;;21.88;55.42;100232.81;5016184;28;45544;-80
2021/08/05 10:21:05;;;;;;;;;4.25;4.00;;;;;21.95;55.05;100244.44;5015929;28;46529;-83
2021/08/05 10:23:33;;;;;;;;;6.00;6.00;;;;;21.98;54.87;100241.34;5013728;28;46413;-79
2021/08/05 10:26:01;;;;;;;;;5.00;4.50;;;;;22.01;55.21;100235.66;5014299;28;45760;-86
2021/08/05 10:28:27;;;;;;;;;5.00;4.50;;;;;22.07;54.70;100232.22;5014429;28;45790;-77
2021/08/05 10:30:55;;;;;;;;;5.00;5.00;;;;;22.10;54.89;100221.97;5013395;28;47469;-83
2021/08/05 10:33:21;;;;;;;;;4.00;4.00;;;;;22.17;54.72;100225.53;5013940;28;45881;-81
2021/08/05 10:35:48;;;;;;;;;4.00;3.00;;;;;22.24;54.34;100232.78;5015028;28;45737;-84
2021/08/05 10:38:22;;;;;;;;;6.00;4.75;;;;;22.23;54.17;100213.25;5013855;28;45543;-81
2021/08/05 10:40:50;;;;;;;;;3.75;3.00;;;;;22.27;53.96;100211.03;5014625;28;45586;-85
2021/08/05 10:43:16;;;;;;;;;4.75;4.00;;;;;22.30;53.01;100211.44;5016425;28;45568;-84
2021/08/05 10:45:42;;;;;;;;;4.00;4.00;;;;;22.32;53.51;100206.75;5016077;28;45852;-84
2021/08/05 10:48:09;;;;;;;;;3.25;3.00;;;;;22.36;52.78;100204.50;5017172;28;45518;-85
2021/08/05 10:53:56;;;;;;;;;4.00;4.00;;;;;22.42;52.74;100214.41;5016758;28;45805;-87
2021/08/05 10:56:23;;;;;;;;;5.50;5.50;;;;;22.42;52.52;100201.06;5019878;28;45512;-91
2021/08/05 10:59:09;;;;;;;;;5.00;5.00;;;;;22.42;52.03;100201.06;5023066;28;45527;-82
2021/08/05 11:01:54;;;;;;;;;4.25;4.00;;;;;22.37;51.70;100192.81;5023270;28;45699;-86
2021/08/05 11:04:32;;;;;;;;;5.00;5.00;;;;;22.43;52.28;100192.84;5023778;28;46432;-84
2021/08/05 11:07:22;;;;;;;;;4.25;4.25;;;;;22.47;52.46;100191.44;5020309;28;45645;-84
2021/08/05 11:09:49;;;;;;;;;4.25;4.00;;;;;22.51;52.10;100191.88;5023585;28;45616;-82
2021/08/05 11:12:51;;;;;;;;;4.00;4.00;;;;;22.59;52.13;100179.19;5024209;28;45793;-84
2021/08/05 11:15:20;;;;;;;;;4.00;4.00;;;;;22.66;51.79;100175.72;4943288;28;45557;-85
2021/08/05 11:18:10;;;;;;;;;4.25;3.75;;;;;22.73;51.06;100171.25;4943403;28;45736;-83
2021/08/05 11:20:38;;;;;;;;;4.00;4.00;;;;;22.77;51.61;100172.53;4924185;28;45564;-86
2021/08/05 11:23:04;;;;;;;;;4.00;3.75;;;;;22.82;50.54;100170.09;4939727;28;46671;-83
2021/08/05 11:26:04;;;;;;;;;3.50;2.25;;;;;22.89;50.28;100154.88;4935023;28;46477;-84
2021/08/05 11:28:31;;;;;;;;;4.00;4.00;;;;;22.92;50.60;100165.19;4917855;28;45676;-81
2021/08/05 11:30:58;;;;;;;;;4.00;3.25;;;;;22.95;50.78;100157.59;4935735;28;45738;-81
2021/08/05 11:33:43;;;;;;;;;3.50;3.50;;;;;23.04;49.73;100160.94;4934792;28;46878;-80
2021/08/05 11:36:15;;;;;;;;;2.00;2.00;;;;;23.09;50.00;100157.66;4934801;28;46170;-83
2021/08/05 11:38:59;;;;;;;;;3.00;2.50;;;;;23.15;49.69;100164.88;4934155;28;45729;-82
2021/08/05 11:41:50;;;;;;;;;2.25;2.25;;;;;23.21;50.12;100154.16;4920231;28;45914;-82
2021/08/05 11:44:35;;;;;;;;;3.25;3.00;;;;;23.27;49.80;100142.66;4939975;28;45767;-88
2021/08/05 11:47:14;;;;;;;;;2.25;2.25;;;;;23.32;49.58;100139.41;4944878;28;46416;-89
2021/08/05 11:53:02;;;;;;;;;3.50;3.00;;;;;23.30;49.82;100120.06;5015726;28;45595;-87
2021/08/05 11:55:28;;;;;;;;;3.00;3.00;;;;;23.32;49.34;100120.69;5015803;28;45640;-87
2021/08/05 11:58:00;;;;;;;;;3.75;3.00;;;;;23.44;49.46;100138.59;5016171;28;45859;-88
2021/08/05 12:00:27;;;;;;;;;2.75;2.50;;;;;23.54;49.38;100132.03;5017874;28;45607;-88
2021/08/05 12:02:54;;;;;;;;;4.00;3.00;;;;;23.60;49.63;100124.03;5017532;28;45648;-82
2021/08/05 12:08:44;;;;;;;;;3.75;3.00;;;;;23.63;49.23;100120.13;5015415;28;45994;-89
2021/08/05 12:11:10;;;;;;;;;4.00;3.50;;;;;23.74;49.02;100120.34;5016309;28;45729;-85
2021/08/05 12:13:40;;;;;;;;;2.75;2.75;;;;;23.75;49.49;100116.63;5015957;28;45539;-83
2021/08/05 12:16:06;;;;;;;;;3.75;3.75;;;;;23.87;49.24;100119.50;4997818;28;47336;-88
2021/08/05 12:18:39;;;;;;;;;2.00;2.00;;;;;23.74;49.36;100085.56;5014886;28;45681;-81
2021/08/05 12:24:41;;;;;;;;;4.00;3.00;;;;;24.00;49.42;100111.47;5006295;28;45739;-86
2021/08/05 12:27:06;;;;;;;;;2.50;2.50;;;;;23.86;49.07;100084.94;4997602;28;48644;-86
2021/08/05 12:29:33;;;;;;;;;2.50;2.50;;;;;24.08;48.77;100110.41;5012746;28;47292;-83
2021/08/05 12:32:07;;;;;;;;;4.00;3.25;;;;;24.13;48.62;100103.38;5015564;28;45540;-90
2021/08/05 12:34:32;;;;;;;;;2.00;2.00;;;;;24.06;48.86;100091.91;4984451;28;45916;-86
2021/08/05 12:37:11;;;;;;;;;4.00;4.00;;;;;24.17;48.68;100091.28;5018856;28;45588;-82